createdAt,value
2023-04-12T00:00:25.172Z,7.70
2023-04-12T00:03:11.523Z,7.38
2023-04-12T00:05:59.863Z,7.71
2023-04-12T00:08:46.885Z,8.04
2023-04-12T00:11:33.426Z,8.21
2023-04-12T00:14:19.983Z,7.88
2023-04-12T00:17:06.230Z,7.93
2023-04-12T00:19:52.379Z,8.18
2023-04-12T00:22:39.804Z,8.22
2023-04-12T00:25:26.346Z,8.02
2023-04-12T00:28:12.781Z,8.14
2023-04-12T00:30:58.995Z,8.27
2023-04-12T00:33:47.232Z,7.98
2023-04-12T00:36:33.673Z,8.05
2023-04-12T00:39:20.033Z,7.93
2023-04-12T00:42:06.799Z,7.72
2023-04-12T00:44:52.965Z,7.43
2023-04-12T00:47:42.860Z,7.52
2023-04-12T00:50:29.653Z,7.46
2023-04-12T00:53:17.617Z,7.49
2023-04-12T00:56:04.512Z,7.60
2023-04-12T00:58:50.972Z,7.58
2023-04-12T01:01:38.379Z,7.49
2023-04-12T01:04:26.412Z,7.60
2023-04-12T01:07:29.965Z,7.30
2023-04-12T01:10:39.131Z,7.26
2023-04-12T01:13:59.143Z,7.57
2023-04-12T01:16:51.820Z,7.10
2023-04-12T01:19:47.433Z,7.34
2023-04-12T01:23:06.043Z,7.42
2023-04-12T01:26:15.625Z,7.46
2023-04-12T01:29:07.728Z,7.39
2023-04-12T01:32:01.779Z,7.24
2023-04-12T01:34:49.348Z,7.12
2023-04-12T01:37:36.455Z,7.16
2023-04-12T01:40:24.040Z,7.26
2023-04-12T01:43:13.502Z,7.00
2023-04-12T01:45:59.947Z,7.06
2023-04-12T01:48:51.071Z,6.86
2023-04-12T01:51:48.298Z,6.94
2023-04-12T01:54:38.616Z,7.04
2023-04-12T01:57:26.859Z,7.02
2023-04-12T02:00:15.589Z,7.06
2023-04-12T02:03:03.153Z,6.92
2023-04-12T02:05:51.733Z,6.87
2023-04-12T02:08:40.163Z,7.04
2023-04-12T02:11:29.383Z,6.98
2023-04-12T02:14:16.301Z,6.99
2023-04-12T02:17:04.569Z,6.99
2023-04-12T02:19:51.593Z,7.09
2023-04-12T02:22:38.783Z,7.15
2023-04-12T02:25:24.971Z,6.98
2023-04-12T02:28:11.476Z,7.10
2023-04-12T02:30:57.820Z,7.06
2023-04-12T02:33:44.282Z,7.13
2023-04-12T02:36:30.623Z,6.85
2023-04-12T02:39:18.703Z,6.84
2023-04-12T02:42:07.328Z,6.99
2023-04-12T02:44:53.991Z,6.98
2023-04-12T02:47:41.610Z,6.94
2023-04-12T02:50:30.230Z,7.05
2023-04-12T02:53:29.073Z,7.09
2023-04-12T02:56:31.084Z,6.96
2023-04-12T02:59:26.296Z,7.02
2023-04-12T03:02:27.876Z,6.90
2023-04-12T03:05:19.698Z,6.84
2023-04-12T03:08:06.455Z,6.88
2023-04-12T03:10:58.844Z,6.65
2023-04-12T03:13:46.640Z,6.64
2023-04-12T03:16:35.518Z,6.85
2023-04-12T03:19:30.334Z,6.91
2023-04-12T03:22:16.542Z,6.89
2023-04-12T03:25:06.462Z,6.75
2023-04-12T03:27:52.748Z,6.61
2023-04-12T03:30:42.006Z,6.74
2023-04-12T03:33:28.632Z,6.93
2023-04-12T03:36:23.783Z,6.88
2023-04-12T03:39:16.741Z,6.90
2023-04-12T03:42:04.809Z,6.92
2023-04-12T03:44:52.378Z,6.78
2023-04-12T03:47:41.785Z,6.86
2023-04-12T03:50:29.595Z,6.84
2023-04-12T03:53:17.473Z,6.81
2023-04-12T03:56:06.623Z,6.64
2023-04-12T03:58:53.501Z,6.44
2023-04-12T04:01:41.677Z,6.54
2023-04-12T04:04:28.684Z,6.35
2023-04-12T04:07:19.144Z,6.70
2023-04-12T04:10:06.889Z,6.52
2023-04-12T04:12:57.283Z,6.72
2023-04-12T04:15:43.838Z,6.88
2023-04-12T04:18:31.121Z,6.45
2023-04-12T04:21:19.549Z,6.72
2023-04-12T04:24:07.032Z,6.67
2023-04-12T04:26:59.265Z,6.70
2023-04-12T04:29:46.937Z,6.54
2023-04-12T04:32:36.091Z,6.70
2023-04-12T04:35:24.133Z,6.52
2023-04-12T04:38:25.676Z,6.62
2023-04-12T04:41:17.535Z,6.60
2023-04-12T04:44:10.858Z,6.66
2023-04-12T04:47:05.047Z,6.71
2023-04-12T04:49:51.779Z,6.56
2023-04-12T04:52:44.664Z,6.46
2023-04-12T04:55:33.477Z,6.52
2023-04-12T04:58:20.677Z,6.70
2023-04-12T05:01:07.433Z,6.65
2023-04-12T05:03:55.666Z,6.62
2023-04-12T05:06:46.317Z,6.68
2023-04-12T05:09:35.022Z,6.60
2023-04-12T05:12:21.694Z,6.52
2023-04-12T05:15:12.457Z,6.78
2023-04-12T05:18:00.012Z,6.34
2023-04-12T05:20:48.380Z,6.60
2023-04-12T05:23:45.620Z,6.82
2023-04-12T05:26:34.269Z,6.51
2023-04-12T05:29:22.827Z,6.61
2023-04-12T05:32:09.268Z,6.73
2023-04-12T05:34:57.431Z,6.85
2023-04-12T05:37:43.806Z,6.93
2023-04-12T05:40:31.764Z,6.63
2023-04-12T05:43:18.876Z,6.85
2023-04-12T05:46:08.028Z,6.81
2023-04-12T05:48:56.433Z,6.91
2023-04-12T05:51:43.085Z,6.95
2023-04-12T05:54:38.418Z,6.75
2023-04-12T05:57:25.478Z,7.20
2023-04-12T06:00:18.617Z,7.18
2023-04-12T06:03:06.145Z,6.84
2023-04-12T06:05:52.960Z,7.05
2023-04-12T06:08:39.460Z,7.12
2023-04-12T06:11:27.392Z,7.24
2023-04-12T06:14:14.810Z,7.27
2023-04-12T06:17:01.637Z,7.20
2023-04-12T06:19:47.871Z,7.37
2023-04-12T06:22:34.328Z,7.55
2023-04-12T06:25:21.320Z,7.69
2023-04-12T06:28:10.633Z,7.33
2023-04-12T06:31:04.181Z,7.77
2023-04-12T06:33:55.330Z,7.76
2023-04-12T06:36:43.428Z,7.90
2023-04-12T06:39:29.740Z,7.86
2023-04-12T06:42:17.590Z,7.90
2023-04-12T06:45:05.042Z,7.67
2023-04-12T06:47:51.626Z,7.84
2023-04-12T06:50:39.896Z,7.93
2023-04-12T06:53:26.493Z,7.59
2023-04-12T06:56:12.873Z,7.98
2023-04-12T06:58:59.779Z,8.01
2023-04-12T07:01:46.324Z,8.36
2023-04-12T07:04:32.604Z,8.24
2023-04-12T07:07:20.645Z,8.49
2023-04-12T07:10:07.523Z,8.54
2023-04-12T07:12:53.600Z,8.56
2023-04-12T07:15:39.984Z,8.53
2023-04-12T07:18:26.702Z,8.72
2023-04-12T07:21:14.513Z,8.47
2023-04-12T07:24:01.571Z,8.69
2023-04-12T07:26:47.867Z,8.93
2023-04-12T07:29:34.396Z,9.05
2023-04-12T07:32:21.209Z,8.87
2023-04-12T07:35:08.190Z,8.82
2023-04-12T07:37:54.919Z,9.05
2023-04-12T07:40:41.169Z,8.76
2023-04-12T07:43:27.632Z,9.29
2023-04-12T07:46:14.019Z,9.30
2023-04-12T07:49:00.548Z,9.39
2023-04-12T07:51:46.765Z,9.42
2023-04-12T07:54:33.263Z,9.36
2023-04-12T07:57:19.700Z,9.39
2023-04-12T08:00:07.027Z,9.56
2023-04-12T08:03:00.265Z,9.51
2023-04-12T08:05:49.530Z,9.72
2023-04-12T08:08:35.995Z,9.97
2023-04-12T08:11:22.134Z,10.08
2023-04-12T08:14:08.603Z,10.07
2023-04-12T08:16:54.985Z,9.95
2023-04-12T08:19:41.755Z,9.74
2023-04-12T08:22:28.831Z,10.14
2023-04-12T08:25:15.730Z,10.19
2023-04-12T08:28:02.149Z,10.39
2023-04-12T08:30:48.456Z,10.55
2023-04-12T08:33:34.695Z,10.36
2023-04-12T08:36:21.458Z,10.57
2023-04-12T08:39:08.062Z,10.33
2023-04-12T08:41:56.945Z,10.52
2023-04-12T08:44:44.128Z,10.19
2023-04-12T08:47:32.570Z,10.61
2023-04-12T08:50:21.164Z,10.27
2023-04-12T08:53:10.527Z,10.57
2023-04-12T08:55:56.804Z,10.95
2023-04-12T08:58:50.856Z,10.92
2023-04-12T09:01:41.335Z,11.03
2023-04-12T09:04:27.657Z,11.10
2023-04-12T09:07:14.388Z,11.48
2023-04-12T09:10:01.911Z,11.57
2023-04-12T09:12:49.737Z,11.67
2023-04-12T09:15:48.650Z,11.48
2023-04-12T09:18:48.249Z,11.60
2023-04-12T09:21:35.806Z,11.65
2023-04-12T09:24:24.923Z,11.72
2023-04-12T09:27:11.654Z,11.83
2023-04-12T09:30:09.060Z,11.89
2023-04-12T09:32:55.773Z,11.75
2023-04-12T09:35:43.001Z,11.99
2023-04-12T09:38:30.794Z,11.96
2023-04-12T09:41:21.533Z,11.97
2023-04-12T09:44:30.103Z,11.99
2023-04-12T09:47:17.003Z,12.26
2023-04-12T09:50:04.716Z,12.51
2023-04-12T09:52:52.634Z,12.47
2023-04-12T09:55:39.578Z,12.56
2023-04-12T09:58:29.399Z,12.67
2023-04-12T10:01:17.917Z,12.59
2023-04-12T10:04:07.151Z,12.80
2023-04-12T10:06:53.702Z,12.48
2023-04-12T10:09:41.467Z,12.81
2023-04-12T10:12:28.352Z,12.68
2023-04-12T10:15:21.144Z,12.94
2023-04-12T10:18:16.003Z,13.25
2023-04-12T10:21:03.434Z,13.42
2023-04-12T10:23:50.870Z,13.43
2023-04-12T10:26:42.538Z,14.01
2023-04-12T10:29:31.892Z,14.18
2023-04-12T10:32:23.416Z,13.96
2023-04-12T10:35:11.604Z,14.19
2023-04-12T10:38:02.058Z,13.86
2023-04-12T10:41:09.731Z,14.09
2023-04-12T10:44:26.250Z,14.30
2023-04-12T10:47:12.918Z,14.42
2023-04-12T10:50:24.794Z,14.60
2023-04-12T10:53:17.603Z,14.94
2023-04-12T10:56:32.076Z,15.08
2023-04-12T10:59:19.167Z,15.02
2023-04-12T11:02:10.472Z,15.21
2023-04-12T11:05:10.037Z,15.29
2023-04-12T11:08:19.522Z,15.34
2023-04-12T11:11:34.635Z,15.06
2023-04-12T11:14:28.656Z,15.01
2023-04-12T11:17:16.024Z,14.73
2023-04-12T11:20:03.598Z,14.57
2023-04-12T11:22:51.555Z,14.47
2023-04-12T11:25:37.972Z,14.32
2023-04-12T11:28:29.844Z,14.59
2023-04-12T11:31:20.297Z,15.23
2023-04-12T11:34:06.701Z,15.88
2023-04-12T11:36:54.099Z,16.29
2023-04-12T11:39:45.834Z,16.58
2023-04-12T11:42:32.856Z,16.50
2023-04-12T11:45:20.293Z,16.64
2023-04-12T11:48:09.381Z,17.20
2023-04-12T11:51:10.351Z,17.26
2023-04-12T11:53:59.269Z,17.32
2023-04-12T11:56:46.602Z,16.60
2023-04-12T11:59:34.322Z,16.63
2023-04-12T12:02:23.544Z,15.87
2023-04-12T12:05:11.742Z,16.07
2023-04-12T12:08:00.797Z,15.89
2023-04-12T12:11:06.281Z,15.81
2023-04-12T12:13:56.343Z,15.56
2023-04-12T12:16:43.133Z,15.71
2023-04-12T12:19:36.438Z,15.80
2023-04-12T12:22:23.015Z,16.49
2023-04-12T12:25:11.546Z,16.41
2023-04-12T12:27:59.202Z,16.00
2023-04-12T12:30:46.571Z,16.01
2023-04-12T12:33:46.314Z,16.18
2023-04-12T12:36:36.741Z,16.75
2023-04-12T12:39:23.408Z,16.65
2023-04-12T12:42:11.982Z,16.53
2023-04-12T12:44:58.141Z,16.69
2023-04-12T12:47:50.975Z,16.97
2023-04-12T12:50:37.441Z,16.92
2023-04-12T12:53:24.617Z,16.56
2023-04-12T12:56:15.931Z,16.33
2023-04-12T12:59:02.791Z,16.07
2023-04-12T13:01:49.384Z,15.95
2023-04-12T13:04:35.761Z,15.62
2023-04-12T13:07:22.354Z,15.18
2023-04-12T13:10:08.970Z,15.04
2023-04-12T13:12:55.395Z,14.99
2023-04-12T13:15:41.935Z,15.16
2023-04-12T13:18:28.308Z,15.31
2023-04-12T13:21:14.636Z,16.19
2023-04-12T13:24:00.886Z,16.62
2023-04-12T13:26:47.361Z,16.76
2023-04-12T13:29:34.131Z,17.17
2023-04-12T13:32:20.582Z,17.58
2023-04-12T13:35:07.137Z,17.93
2023-04-12T13:37:53.549Z,17.95
2023-04-12T13:40:40.047Z,18.15
2023-04-12T13:43:27.324Z,18.01
2023-04-12T13:46:13.641Z,17.77
2023-04-12T13:49:00.561Z,16.90
2023-04-12T13:51:47.072Z,16.64
2023-04-12T13:54:33.541Z,16.04
2023-04-12T13:57:19.804Z,16.01
2023-04-12T14:00:07.146Z,16.04
2023-04-12T14:02:54.096Z,16.33
2023-04-12T14:05:40.325Z,16.51
2023-04-12T14:08:27.598Z,16.69
2023-04-12T14:11:14.435Z,16.15
2023-04-12T14:14:00.651Z,15.66
2023-04-12T14:16:47.157Z,15.68
2023-04-12T14:19:33.654Z,15.64
2023-04-12T14:22:20.381Z,15.68
2023-04-12T14:25:07.988Z,16.01
2023-04-12T14:27:54.247Z,16.44
2023-04-12T14:30:42.062Z,16.47
2023-04-12T14:33:29.514Z,16.52
2023-04-12T14:36:15.888Z,16.33
2023-04-12T14:39:04.080Z,16.18
2023-04-12T14:41:50.737Z,15.99
2023-04-12T14:44:37.353Z,15.77
2023-04-12T14:47:23.692Z,15.37
2023-04-12T14:50:10.154Z,15.07
2023-04-12T14:52:56.349Z,14.68
2023-04-12T14:55:46.434Z,14.21
2023-04-12T14:58:34.355Z,12.36
2023-04-12T15:01:21.731Z,10.67
2023-04-12T15:04:08.946Z,10.36
2023-04-12T15:06:55.620Z,9.81
2023-04-12T15:09:44.003Z,9.75
2023-04-12T15:12:33.473Z,9.52
2023-04-12T15:15:20.462Z,9.46
2023-04-12T15:18:06.699Z,9.35
2023-04-12T15:20:53.299Z,9.01
2023-04-12T15:23:41.362Z,9.28
2023-04-12T15:26:27.780Z,9.13
2023-04-12T15:29:18.097Z,9.26
2023-04-12T15:32:04.907Z,9.57
2023-04-12T15:34:51.508Z,9.71
2023-04-12T15:37:39.963Z,10.08
2023-04-12T15:40:26.368Z,10.10
2023-04-12T15:43:12.965Z,10.01
2023-04-12T15:45:59.651Z,10.29
2023-04-12T15:48:46.121Z,10.24
2023-04-12T15:51:33.296Z,10.50
2023-04-12T15:54:19.570Z,10.39
2023-04-12T15:57:11.366Z,10.69
2023-04-12T15:59:59.394Z,10.78
2023-04-12T16:02:50.135Z,10.80
2023-04-12T16:05:37.025Z,10.76
2023-04-12T16:08:23.965Z,10.97
2023-04-12T16:11:12.141Z,10.84
2023-04-12T16:13:59.022Z,11.35
2023-04-12T16:16:46.693Z,11.40
2023-04-12T16:19:33.400Z,11.64
2023-04-12T16:22:20.290Z,11.52
2023-04-12T16:25:08.333Z,11.49
2023-04-12T16:27:55.470Z,11.34
2023-04-12T16:30:42.065Z,11.05
2023-04-12T16:33:28.753Z,11.35
2023-04-12T16:36:16.220Z,11.33
2023-04-12T16:39:03.432Z,11.17
2023-04-12T16:41:49.722Z,11.35
2023-04-12T16:44:36.427Z,11.32
2023-04-12T16:47:22.751Z,11.35
2023-04-12T16:50:10.063Z,11.39
2023-04-12T16:52:56.276Z,11.21
2023-04-12T16:55:44.043Z,11.51
2023-04-12T16:58:31.260Z,11.46
2023-04-12T17:01:17.843Z,11.34
2023-04-12T17:04:04.541Z,11.29
2023-04-12T17:06:51.107Z,11.05
2023-04-12T17:09:37.611Z,11.07
2023-04-12T17:12:23.924Z,10.82
2023-04-12T17:15:11.708Z,10.83
2023-04-12T17:18:06.602Z,10.48
2023-04-12T17:20:52.904Z,10.74
2023-04-12T17:23:39.589Z,10.54
2023-04-12T17:26:27.213Z,10.17
2023-04-12T17:29:14.491Z,10.27
2023-04-12T17:32:00.699Z,10.40
2023-04-12T17:34:46.984Z,10.51
2023-04-12T17:37:38.215Z,10.38
2023-04-12T17:40:24.945Z,10.33
2023-04-12T17:43:11.565Z,9.92
2023-04-12T17:46:03.330Z,10.07
2023-04-12T17:48:50.036Z,10.01
2023-04-12T17:51:36.382Z,9.87
2023-04-12T17:54:23.011Z,9.65
2023-04-12T17:57:09.774Z,9.84
2023-04-12T17:59:56.557Z,9.54
2023-04-12T18:02:46.736Z,9.53
2023-04-12T18:05:33.812Z,9.72
2023-04-12T18:08:23.816Z,9.28
2023-04-12T18:11:10.955Z,9.61
2023-04-12T18:13:57.798Z,9.59
2023-04-12T18:16:44.334Z,9.45
2023-04-12T18:19:31.049Z,9.23
2023-04-12T18:22:17.646Z,9.21
2023-04-12T18:25:04.634Z,8.99
2023-04-12T18:27:52.421Z,8.93
2023-04-12T18:30:38.770Z,8.68
2023-04-12T18:33:25.362Z,8.87
2023-04-12T18:36:11.858Z,8.72
2023-04-12T18:38:58.317Z,8.82
2023-04-12T18:41:44.507Z,8.98
2023-04-12T18:44:31.661Z,9.13
2023-04-12T18:47:18.379Z,9.13
2023-04-12T18:50:06.496Z,9.08
2023-04-12T18:52:53.124Z,8.99
2023-04-12T18:55:39.549Z,8.86
2023-04-12T18:58:29.782Z,9.00
2023-04-12T19:01:20.009Z,8.66
2023-04-12T19:04:07.767Z,8.53
2023-04-12T19:06:55.541Z,8.79
2023-04-12T19:09:42.139Z,8.35
2023-04-12T19:12:29.137Z,8.51
2023-04-12T19:15:15.525Z,8.41
2023-04-12T19:18:02.013Z,8.43
2023-04-12T19:20:49.950Z,8.41
2023-04-12T19:23:37.060Z,8.75
2023-04-12T19:26:23.553Z,8.79
2023-04-12T19:29:09.799Z,8.77
2023-04-12T19:31:57.836Z,8.90
2023-04-12T19:34:44.568Z,8.77
2023-04-12T19:37:33.990Z,8.85
2023-04-12T19:40:21.071Z,8.94
2023-04-12T19:43:08.371Z,8.86
2023-04-12T19:45:55.022Z,8.74
2023-04-12T19:48:41.734Z,8.81
2023-04-12T19:51:28.165Z,8.91
2023-04-12T19:54:14.749Z,8.93
2023-04-12T19:57:00.954Z,9.09
2023-04-12T19:59:47.280Z,9.10
2023-04-12T20:02:34.005Z,9.18
2023-04-12T20:05:22.455Z,8.75
2023-04-12T20:08:10.688Z,9.02
2023-04-12T20:10:57.438Z,9.21
2023-04-12T20:13:43.706Z,9.33
2023-04-12T20:16:31.379Z,9.29
2023-04-12T20:19:17.740Z,9.12
2023-04-12T20:22:04.032Z,8.86
2023-04-12T20:24:53.030Z,8.45
2023-04-12T20:27:39.325Z,7.80
2023-04-12T20:30:26.260Z,6.94
2023-04-12T20:33:13.009Z,6.70
2023-04-12T20:35:59.539Z,6.53
2023-04-12T20:38:46.124Z,6.68
2023-04-12T20:41:35.079Z,6.91
2023-04-12T20:44:21.536Z,6.45
2023-04-12T20:47:07.982Z,6.87
2023-04-12T20:49:56.092Z,6.82
2023-04-12T20:52:42.769Z,6.96
2023-04-12T20:55:33.911Z,6.92
2023-04-12T20:58:21.397Z,6.86
2023-04-12T21:01:08.291Z,7.01
2023-04-12T21:03:55.938Z,6.84
2023-04-12T21:06:43.850Z,6.88
2023-04-12T21:09:30.568Z,6.67
2023-04-12T21:12:18.141Z,6.68
2023-04-12T21:15:06.130Z,6.85
2023-04-12T21:17:52.562Z,6.74
2023-04-12T21:20:39.496Z,6.90
2023-04-12T21:23:26.580Z,6.87
2023-04-12T21:26:14.382Z,6.53
2023-04-12T21:29:01.403Z,6.24
2023-04-12T21:31:48.745Z,6.12
2023-04-12T21:34:39.096Z,6.52
2023-04-12T21:37:26.113Z,6.71
2023-04-12T21:40:13.228Z,6.58
2023-04-12T21:42:59.331Z,6.33
2023-04-12T21:45:46.590Z,6.61
2023-04-12T21:48:32.753Z,6.45
2023-04-12T21:51:19.100Z,6.47
2023-04-12T21:54:05.461Z,6.58
2023-04-12T21:56:51.540Z,6.67
2023-04-12T21:59:38.130Z,6.52
2023-04-12T22:02:25.766Z,6.39
2023-04-12T22:05:12.417Z,6.37
2023-04-12T22:07:59.550Z,6.48
2023-04-12T22:10:46.544Z,6.28
2023-04-12T22:13:33.268Z,6.58
2023-04-12T22:16:19.675Z,6.68
2023-04-12T22:19:06.125Z,6.80
2023-04-12T22:21:54.152Z,6.74
2023-04-12T22:24:40.482Z,6.79
2023-04-12T22:27:26.886Z,6.91
2023-04-12T22:30:14.354Z,7.15
2023-04-12T22:33:00.703Z,7.15
2023-04-12T22:35:47.245Z,7.00
2023-04-12T22:38:35.284Z,7.03
2023-04-12T22:41:21.477Z,6.72
2023-04-12T22:44:07.971Z,6.69
2023-04-12T22:46:56.642Z,6.94
2023-04-12T22:49:50.383Z,6.86
2023-04-12T22:52:40.481Z,6.79
2023-04-12T22:55:27.979Z,6.22
2023-04-12T22:58:15.475Z,6.54
2023-04-12T23:01:04.051Z,6.57
2023-04-12T23:03:51.727Z,6.35
2023-04-12T23:06:42.349Z,6.31
2023-04-12T23:09:28.724Z,6.34
2023-04-12T23:12:15.065Z,6.42
2023-04-12T23:15:02.173Z,6.23
2023-04-12T23:17:49.921Z,6.44
2023-04-12T23:20:37.500Z,6.21
2023-04-12T23:23:24.645Z,6.01
2023-04-12T23:26:11.948Z,5.96
2023-04-12T23:28:58.366Z,5.97
2023-04-12T23:31:45.732Z,5.54
2023-04-12T23:34:34.698Z,5.71
2023-04-12T23:37:22.321Z,5.70
2023-04-12T23:40:14.861Z,5.90
2023-04-12T23:43:02.203Z,5.97
2023-04-12T23:45:49.065Z,6.11
2023-04-12T23:48:35.820Z,6.17
2023-04-12T23:51:22.591Z,6.25
2023-04-12T23:54:08.973Z,6.30
2023-04-12T23:56:55.070Z,5.90
2023-04-12T23:59:41.597Z,6.01
